createdAt,value
2023-02-19T00:02:17.319Z,7.83
2023-02-19T00:04:44.843Z,8.47
2023-02-19T00:07:12.288Z,8.97
2023-02-19T00:09:39.828Z,7.63
2023-02-19T00:12:07.602Z,8.43
2023-02-19T00:14:35.096Z,7.33
2023-02-19T00:17:02.584Z,8.13
2023-02-19T00:19:30.135Z,8.43
2023-02-19T00:21:57.587Z,9.10
2023-02-19T00:24:25.259Z,8.37
2023-02-19T00:26:52.700Z,8.20
2023-02-19T00:29:21.815Z,8.90
2023-02-19T00:31:50.207Z,8.60
2023-02-19T00:34:17.848Z,7.57
2023-02-19T00:36:45.410Z,8.47
2023-02-19T00:39:16.107Z,9.00
2023-02-19T00:41:44.601Z,7.60
2023-02-19T00:44:13.438Z,9.33
2023-02-19T00:46:46.184Z,8.37
2023-02-19T00:49:17.699Z,8.00
2023-02-19T00:51:46.046Z,8.63
2023-02-19T00:54:14.242Z,8.90
2023-02-19T00:56:41.902Z,9.37
2023-02-19T00:59:09.931Z,10.00
2023-02-19T01:01:37.983Z,9.53
2023-02-19T01:04:06.891Z,8.83
2023-02-19T01:06:35.771Z,9.40
2023-02-19T01:09:05.139Z,8.97
2023-02-19T01:11:32.663Z,8.53
2023-02-19T01:14:01.170Z,9.67
2023-02-19T01:16:28.832Z,9.57
2023-02-19T01:18:57.914Z,9.47
2023-02-19T01:21:27.245Z,9.37
2023-02-19T01:23:55.420Z,8.80
2023-02-19T01:26:29.339Z,9.30
2023-02-19T01:28:57.711Z,10.00
2023-02-19T01:31:26.294Z,8.90
2023-02-19T01:33:56.814Z,9.60
2023-02-19T01:36:25.304Z,9.50
2023-02-19T01:38:52.944Z,9.30
2023-02-19T01:41:23.449Z,8.77
2023-02-19T01:44:09.491Z,9.37
2023-02-19T01:46:42.517Z,9.70
2023-02-19T01:49:10.091Z,9.17
2023-02-19T01:51:41.633Z,9.13
2023-02-19T01:54:12.422Z,8.50
2023-02-19T01:56:42.826Z,8.97
2023-02-19T01:59:10.539Z,8.60
2023-02-19T02:01:39.595Z,8.37
2023-02-19T02:04:11.069Z,9.13
2023-02-19T02:06:52.863Z,8.47
2023-02-19T02:09:43.121Z,8.53
2023-02-19T02:12:11.206Z,7.83
2023-02-19T02:14:41.692Z,8.30
2023-02-19T02:17:37.390Z,8.27
2023-02-19T02:20:20.180Z,7.60
2023-02-19T02:23:14.904Z,9.33
2023-02-19T02:26:21.829Z,8.27
2023-02-19T02:29:31.655Z,8.43
2023-02-19T02:32:06.143Z,6.97
2023-02-19T02:34:59.704Z,7.70
2023-02-19T02:37:31.613Z,7.80
2023-02-19T02:40:00.870Z,7.93
2023-02-19T02:42:30.890Z,7.60
2023-02-19T02:45:37.250Z,8.30
2023-02-19T02:48:29.973Z,7.73
2023-02-19T02:51:00.755Z,7.70
2023-02-19T02:54:03.528Z,7.83
2023-02-19T02:56:32.009Z,7.70
2023-02-19T02:59:03.732Z,7.47
2023-02-19T03:02:07.447Z,7.17
2023-02-19T03:05:04.323Z,7.40
2023-02-19T03:07:40.195Z,7.90
2023-02-19T03:10:12.705Z,8.40
2023-02-19T03:13:01.906Z,6.83
2023-02-19T03:15:55.564Z,7.23
2023-02-19T03:18:45.022Z,7.57
2023-02-19T03:21:15.977Z,7.53
2023-02-19T03:24:04.334Z,8.07
2023-02-19T03:26:34.156Z,7.33
2023-02-19T03:29:22.241Z,7.70
2023-02-19T03:31:57.621Z,7.83
2023-02-19T03:34:34.902Z,7.95
2023-02-19T03:37:10.069Z,9.70
2023-02-19T03:39:44.515Z,7.60
2023-02-19T03:42:40.073Z,7.80
2023-02-19T03:45:26.214Z,8.77
2023-02-19T03:48:18.266Z,7.25
2023-02-19T03:51:10.804Z,7.67
2023-02-19T03:54:03.285Z,7.20
2023-02-19T03:56:37.369Z,7.53
2023-02-19T03:59:15.318Z,7.37
2023-02-19T04:01:55.433Z,7.40
2023-02-19T04:04:38.253Z,7.23
2023-02-19T04:07:06.210Z,7.63
2023-02-19T04:09:41.477Z,6.80
2023-02-19T04:12:14.891Z,7.50
2023-02-19T04:14:50.255Z,7.10
2023-02-19T04:17:22.366Z,7.90
2023-02-19T04:19:53.089Z,7.20
2023-02-19T04:22:22.777Z,8.57
2023-02-19T04:24:53.061Z,7.20
2023-02-19T04:27:20.677Z,8.03
2023-02-19T04:29:48.178Z,7.70
2023-02-19T04:32:15.834Z,8.00
2023-02-19T04:34:43.293Z,7.73
2023-02-19T04:37:10.839Z,8.27
2023-02-19T04:39:38.346Z,7.50
2023-02-19T04:42:05.899Z,7.17
2023-02-19T04:44:34.045Z,6.63
2023-02-19T04:47:01.681Z,6.87
2023-02-19T04:49:29.806Z,6.80
2023-02-19T04:51:57.384Z,6.97
2023-02-19T04:54:24.976Z,7.50
2023-02-19T04:56:52.389Z,7.80
2023-02-19T04:59:19.973Z,7.50
2023-02-19T05:01:47.404Z,7.27
2023-02-19T05:04:14.911Z,7.07
2023-02-19T05:06:42.430Z,7.07
2023-02-19T05:09:09.995Z,6.77
2023-02-19T05:11:37.647Z,6.53
2023-02-19T05:14:05.154Z,6.47
2023-02-19T05:16:33.317Z,7.30
2023-02-19T05:19:00.806Z,7.27
2023-02-19T05:21:28.386Z,6.83
2023-02-19T05:23:55.841Z,6.40
2023-02-19T05:26:24.114Z,6.60
2023-02-19T05:28:54.360Z,7.07
2023-02-19T05:31:22.100Z,7.00
2023-02-19T05:33:51.462Z,6.57
2023-02-19T05:36:21.292Z,6.63
2023-02-19T05:38:53.087Z,6.27
2023-02-19T05:41:23.606Z,6.57
2023-02-19T05:43:52.121Z,5.80
2023-02-19T05:46:22.710Z,7.40
2023-02-19T05:48:52.125Z,6.37
2023-02-19T05:51:22.406Z,6.80
2023-02-19T05:53:51.045Z,6.43
2023-02-19T05:56:42.548Z,6.23
2023-02-19T05:59:15.676Z,6.90
2023-02-19T06:01:43.529Z,6.53
2023-02-19T06:04:14.150Z,6.37
2023-02-19T06:06:42.471Z,6.20
2023-02-19T06:09:11.108Z,6.00
2023-02-19T06:11:43.452Z,5.87
2023-02-19T06:14:13.664Z,6.83
2023-02-19T06:16:41.581Z,7.27
2023-02-19T06:19:09.346Z,6.53
2023-02-19T06:21:37.093Z,5.50
2023-02-19T06:24:06.291Z,5.87
2023-02-19T06:26:34.113Z,7.23
2023-02-19T06:29:01.599Z,7.57
2023-02-19T06:31:29.214Z,6.43
2023-02-19T06:33:56.695Z,6.83
2023-02-19T06:36:24.355Z,6.57
2023-02-19T06:38:52.199Z,5.93
2023-02-19T06:41:19.916Z,5.60
2023-02-19T06:43:48.767Z,7.37
2023-02-19T06:46:16.428Z,6.80
2023-02-19T06:48:45.265Z,5.57
2023-02-19T06:51:15.624Z,6.70
2023-02-19T06:53:43.361Z,6.57
2023-02-19T06:56:34.781Z,6.20
2023-02-19T06:59:05.248Z,5.50
2023-02-19T07:01:34.370Z,6.10
2023-02-19T07:04:02.706Z,6.77
2023-02-19T07:06:31.107Z,6.17
2023-02-19T07:08:59.778Z,6.03
2023-02-19T07:11:30.599Z,5.70
2023-02-19T07:14:00.385Z,5.87
2023-02-19T07:16:29.966Z,6.17
2023-02-19T07:18:58.516Z,6.17
2023-02-19T07:21:27.362Z,6.50
2023-02-19T07:23:54.949Z,6.23
2023-02-19T07:26:23.003Z,5.27
2023-02-19T07:28:51.547Z,5.73
2023-02-19T07:31:23.716Z,5.80
2023-02-19T07:33:51.928Z,6.13
2023-02-19T07:36:20.846Z,5.33
2023-02-19T07:38:59.472Z,7.33
2023-02-19T07:41:27.989Z,5.70
2023-02-19T07:43:58.479Z,5.67
2023-02-19T07:46:26.182Z,6.50
2023-02-19T07:48:53.697Z,5.73
2023-02-19T07:51:21.871Z,5.57
2023-02-19T07:53:53.108Z,6.00
2023-02-19T07:56:21.075Z,5.23
2023-02-19T07:58:48.564Z,6.57
2023-02-19T08:01:42.133Z,6.00
2023-02-19T08:04:11.635Z,5.10
2023-02-19T08:06:39.775Z,6.27
2023-02-19T08:09:07.310Z,6.00
2023-02-19T08:11:55.885Z,7.27
2023-02-19T08:14:27.526Z,6.20
2023-02-19T08:16:55.587Z,5.63
2023-02-19T08:19:23.191Z,7.07
2023-02-19T08:21:51.048Z,6.23
2023-02-19T08:24:18.553Z,6.17
2023-02-19T08:26:46.025Z,5.97
2023-02-19T08:29:13.643Z,6.37
2023-02-19T08:31:41.173Z,5.67
2023-02-19T08:34:08.910Z,6.23
2023-02-19T08:36:36.547Z,6.63
2023-02-19T08:39:04.295Z,5.87
2023-02-19T08:41:31.793Z,5.93
2023-02-19T08:43:59.471Z,6.27
2023-02-19T08:46:27.012Z,6.30
2023-02-19T08:48:54.578Z,5.70
2023-02-19T08:51:21.998Z,6.17
2023-02-19T08:53:49.614Z,7.80
2023-02-19T08:56:17.859Z,6.27
2023-02-19T08:58:45.470Z,6.40
2023-02-19T09:01:15.767Z,6.43
2023-02-19T09:03:43.684Z,6.67
2023-02-19T09:06:20.085Z,6.23
2023-02-19T09:08:47.884Z,6.75
2023-02-19T09:11:15.399Z,8.23
2023-02-19T09:13:43.830Z,8.07
2023-02-19T09:16:12.018Z,8.87
2023-02-19T09:18:39.695Z,7.80
2023-02-19T09:21:07.250Z,7.53
2023-02-19T09:23:36.940Z,6.90
2023-02-19T09:26:07.704Z,6.97
2023-02-19T09:28:35.750Z,6.40
2023-02-19T09:31:09.091Z,7.53
2023-02-19T09:33:37.324Z,7.30
2023-02-19T09:36:05.100Z,7.60
2023-02-19T09:38:32.642Z,6.40
2023-02-19T09:41:07.927Z,6.37
2023-02-19T09:43:36.022Z,6.20
2023-02-19T09:46:10.367Z,6.73
2023-02-19T09:48:38.139Z,7.67
2023-02-19T09:51:08.790Z,6.67
2023-02-19T09:53:49.695Z,6.87
2023-02-19T09:56:17.945Z,6.50
2023-02-19T09:58:52.388Z,6.97
2023-02-19T10:01:20.491Z,6.97
2023-02-19T10:03:49.434Z,6.67
2023-02-19T10:06:23.607Z,7.30
2023-02-19T10:08:55.372Z,6.57
2023-02-19T10:11:25.995Z,7.93
2023-02-19T10:14:12.455Z,6.80
2023-02-19T10:16:43.503Z,6.57
2023-02-19T10:19:12.998Z,6.13
2023-02-19T10:21:41.876Z,7.27
2023-02-19T10:24:19.163Z,7.97
2023-02-19T10:26:47.437Z,7.63
2023-02-19T10:29:14.905Z,7.67
2023-02-19T10:31:42.531Z,6.77
2023-02-19T10:34:22.399Z,7.17
2023-02-19T10:36:52.221Z,7.37
2023-02-19T10:39:19.706Z,6.90
2023-02-19T10:41:48.546Z,7.50
2023-02-19T10:44:21.684Z,7.07
2023-02-19T10:46:52.216Z,6.33
2023-02-19T10:49:30.555Z,6.23
2023-02-19T10:52:17.555Z,7.20
2023-02-19T10:54:49.578Z,7.30
2023-02-19T10:57:21.263Z,7.57
2023-02-19T10:59:51.014Z,6.90
2023-02-19T11:02:22.766Z,7.17
2023-02-19T11:05:09.274Z,8.20
2023-02-19T11:07:38.835Z,7.63
2023-02-19T11:10:07.379Z,7.33
2023-02-19T11:12:35.505Z,6.33
2023-02-19T11:15:27.869Z,7.73
2023-02-19T11:18:12.168Z,7.07
2023-02-19T11:20:54.630Z,7.53
2023-02-19T11:23:31.719Z,7.17
2023-02-19T11:26:07.138Z,6.68
2023-02-19T11:28:34.660Z,7.17
2023-02-19T11:31:14.967Z,6.37
2023-02-19T11:34:15.005Z,7.60
2023-02-19T11:36:42.880Z,6.57
2023-02-19T11:39:10.390Z,6.77
2023-02-19T11:42:15.368Z,6.90
2023-02-19T11:44:55.334Z,7.53
2023-02-19T11:47:48.864Z,7.60
2023-02-19T11:50:29.605Z,7.83
2023-02-19T11:52:57.121Z,7.70
2023-02-19T11:56:01.062Z,7.73
2023-02-19T11:59:06.420Z,7.33
2023-02-19T12:01:33.820Z,7.63
2023-02-19T12:04:32.345Z,7.53
2023-02-19T12:07:34.390Z,7.50
2023-02-19T12:10:29.911Z,7.70
2023-02-19T12:13:24.675Z,9.07
2023-02-19T12:16:04.325Z,7.80
2023-02-19T12:19:03.964Z,7.40
2023-02-19T12:21:46.525Z,6.60
2023-02-19T12:24:23.005Z,8.87
2023-02-19T12:27:01.959Z,8.60
2023-02-19T12:29:48.157Z,7.30
2023-02-19T12:32:30.773Z,7.80
2023-02-19T12:35:19.825Z,7.30
2023-02-19T12:38:13.192Z,7.13
2023-02-19T12:40:58.920Z,8.63
2023-02-19T12:43:26.555Z,9.50
2023-02-19T12:46:09.320Z,6.97
2023-02-19T12:48:40.008Z,8.10
2023-02-19T12:51:15.107Z,7.27
2023-02-19T12:53:56.244Z,7.03
2023-02-19T12:56:33.266Z,7.23
2023-02-19T12:59:17.674Z,7.70
2023-02-19T13:02:06.006Z,7.10
2023-02-19T13:04:48.464Z,7.67
2023-02-19T13:07:25.635Z,6.60
2023-02-19T13:10:01.610Z,6.85
2023-02-19T13:12:37.239Z,8.23
2023-02-19T13:15:25.916Z,7.20
2023-02-19T13:17:58.661Z,7.50
2023-02-19T13:20:32.800Z,8.00
2023-02-19T13:23:31.604Z,8.33
2023-02-19T13:26:28.827Z,7.97
2023-02-19T13:29:13.668Z,7.30
2023-02-19T13:32:01.142Z,8.03
2023-02-19T13:35:22.476Z,8.18
2023-02-19T13:37:53.766Z,9.10
2023-02-19T13:40:40.353Z,8.23
2023-02-19T13:43:23.483Z,7.80
2023-02-19T13:46:06.319Z,7.33
2023-02-19T13:48:38.201Z,7.83
2023-02-19T13:51:24.201Z,7.70
2023-02-19T13:54:00.305Z,7.20
2023-02-19T13:56:34.874Z,6.88
2023-02-19T13:59:30.036Z,7.37
2023-02-19T14:01:57.844Z,7.50
2023-02-19T14:04:26.596Z,8.57
2023-02-19T14:07:20.575Z,7.77
2023-02-19T14:09:50.706Z,7.83
2023-02-19T14:12:21.765Z,7.40
2023-02-19T14:14:51.715Z,7.40
2023-02-19T14:17:25.346Z,8.30
2023-02-19T14:19:57.746Z,6.80
2023-02-19T14:23:30.331Z,8.20
2023-02-19T14:26:02.600Z,7.77
2023-02-19T14:28:43.874Z,7.37
2023-02-19T14:31:19.774Z,8.20
2023-02-19T14:33:52.034Z,7.80
2023-02-19T14:36:48.881Z,7.33
2023-02-19T14:39:24.976Z,7.07
2023-02-19T14:42:08.286Z,6.80
2023-02-19T14:44:51.546Z,9.23
2023-02-19T14:47:21.577Z,8.40
2023-02-19T14:50:02.434Z,8.13
2023-02-19T14:52:37.045Z,6.93
2023-02-19T14:55:10.499Z,8.27
2023-02-19T14:57:45.551Z,7.53
2023-02-19T15:00:22.375Z,7.73
2023-02-19T15:02:51.592Z,9.52
2023-02-19T15:05:25.416Z,9.67
2023-02-19T15:07:55.679Z,7.77
2023-02-19T15:10:23.823Z,8.77
2023-02-19T15:12:58.162Z,8.50
2023-02-19T15:15:32.747Z,8.57
2023-02-19T15:18:02.107Z,8.13
2023-02-19T15:20:33.066Z,8.53
2023-02-19T15:23:01.979Z,9.63
2023-02-19T15:25:38.198Z,8.20
2023-02-19T15:28:28.613Z,7.73
2023-02-19T15:30:59.092Z,8.93
2023-02-19T15:33:28.182Z,8.67
2023-02-19T15:35:59.537Z,8.37
2023-02-19T15:38:28.170Z,8.23
2023-02-19T15:40:58.837Z,9.13
2023-02-19T15:43:34.498Z,8.93
2023-02-19T15:46:11.636Z,9.33
2023-02-19T15:48:55.060Z,8.70
2023-02-19T15:51:30.186Z,10.43
2023-02-19T15:54:04.148Z,8.97
2023-02-19T15:56:34.129Z,8.27
2023-02-19T15:59:05.891Z,9.23
2023-02-19T16:01:37.683Z,8.57
2023-02-19T16:04:13.179Z,8.37
2023-02-19T16:06:55.215Z,8.10
2023-02-19T16:09:37.132Z,8.63
2023-02-19T16:12:22.520Z,8.83
2023-02-19T16:14:51.145Z,8.90
2023-02-19T16:17:23.179Z,8.90
2023-02-19T16:20:02.467Z,9.50
2023-02-19T16:22:35.315Z,8.47
2023-02-19T16:25:09.159Z,9.87
2023-02-19T16:27:39.872Z,9.33
2023-02-19T16:30:26.771Z,10.57
2023-02-19T16:33:22.087Z,8.17
2023-02-19T16:35:52.479Z,8.97
2023-02-19T16:38:21.495Z,9.53
2023-02-19T16:40:48.900Z,10.07
2023-02-19T16:43:17.236Z,9.20
2023-02-19T16:45:47.677Z,9.23
2023-02-19T16:48:15.663Z,9.47
2023-02-19T16:50:43.116Z,9.20
2023-02-19T16:53:22.395Z,9.90
2023-02-19T16:55:49.939Z,9.40
2023-02-19T16:58:18.379Z,8.63
2023-02-19T17:00:46.308Z,9.07
2023-02-19T17:03:20.747Z,9.30
2023-02-19T17:05:48.652Z,9.77
2023-02-19T17:08:34.344Z,8.93
2023-02-19T17:11:05.232Z,9.43
2023-02-19T17:13:33.188Z,8.20
2023-02-19T17:16:00.792Z,8.77
2023-02-19T17:18:28.770Z,8.90
2023-02-19T17:21:14.038Z,9.57
2023-02-19T17:23:41.826Z,9.43
2023-02-19T17:26:16.363Z,9.83
2023-02-19T17:28:44.099Z,9.37
2023-02-19T17:31:12.124Z,8.70
2023-02-19T17:33:40.251Z,9.97
2023-02-19T17:36:08.597Z,10.30
2023-02-19T17:38:36.158Z,9.67
2023-02-19T17:41:03.978Z,9.47
2023-02-19T17:43:31.983Z,10.60
2023-02-19T17:46:00.669Z,9.47
2023-02-19T17:48:28.276Z,9.80
2023-02-19T17:50:56.234Z,10.00
2023-02-19T17:53:24.061Z,9.17
2023-02-19T17:55:53.065Z,9.30
2023-02-19T17:58:22.032Z,10.77
2023-02-19T18:00:49.583Z,9.10
2023-02-19T18:03:17.210Z,10.43
2023-02-19T18:05:45.127Z,10.33
2023-02-19T18:08:13.051Z,9.40
2023-02-19T18:10:41.117Z,9.30
2023-02-19T18:13:10.818Z,8.53
2023-02-19T18:15:39.278Z,9.73
2023-02-19T18:18:08.476Z,9.53
2023-02-19T18:20:36.133Z,9.70
2023-02-19T18:23:04.956Z,8.60
2023-02-19T18:25:32.862Z,8.50
2023-02-19T18:28:00.766Z,10.37
2023-02-19T18:30:30.087Z,9.90
2023-02-19T18:32:58.168Z,9.67
2023-02-19T18:35:28.780Z,9.67
2023-02-19T18:37:56.666Z,9.60
2023-02-19T18:40:28.583Z,9.53
2023-02-19T18:42:56.578Z,10.17
2023-02-19T18:45:24.611Z,9.37
2023-02-19T18:47:52.360Z,9.93
2023-02-19T18:50:20.606Z,9.97
2023-02-19T18:52:48.270Z,10.40
2023-02-19T18:55:15.830Z,10.83
2023-02-19T18:57:44.376Z,10.37
2023-02-19T19:00:20.679Z,9.90
2023-02-19T19:02:50.495Z,10.37
2023-02-19T19:05:23.064Z,8.80
2023-02-19T19:07:52.894Z,10.43
2023-02-19T19:10:21.183Z,11.03
2023-02-19T19:12:49.093Z,9.83
2023-02-19T19:15:18.564Z,10.13
2023-02-19T19:17:47.703Z,10.47
2023-02-19T19:20:19.020Z,9.60
2023-02-19T19:22:49.556Z,10.50
2023-02-19T19:25:17.659Z,9.70
2023-02-19T19:27:46.089Z,10.00
2023-02-19T19:30:14.209Z,11.03
2023-02-19T19:32:42.190Z,10.07
2023-02-19T19:35:10.133Z,9.90
2023-02-19T19:37:37.666Z,9.83
2023-02-19T19:40:05.979Z,9.73
2023-02-19T19:42:33.512Z,11.00
2023-02-19T19:45:01.218Z,10.63
2023-02-19T19:47:30.019Z,11.30
2023-02-19T19:49:57.677Z,11.67
2023-02-19T19:52:25.127Z,10.57
2023-02-19T19:54:54.197Z,11.10
2023-02-19T19:57:21.839Z,10.20
2023-02-19T19:59:51.234Z,10.70
2023-02-19T20:02:19.511Z,10.93
2023-02-19T20:04:47.127Z,12.47
2023-02-19T20:07:14.759Z,10.47
2023-02-19T20:09:42.347Z,10.07
2023-02-19T20:12:10.995Z,11.23
2023-02-19T20:14:38.720Z,11.30
2023-02-19T20:17:06.224Z,10.57
2023-02-19T20:19:33.776Z,11.67
2023-02-19T20:22:01.361Z,10.80
2023-02-19T20:24:29.146Z,11.83
2023-02-19T20:26:58.921Z,10.80
2023-02-19T20:29:29.154Z,10.37
2023-02-19T20:32:03.642Z,10.07
2023-02-19T20:34:32.041Z,10.83
2023-02-19T20:36:59.705Z,9.80
2023-02-19T20:39:29.457Z,11.80
2023-02-19T20:41:58.797Z,10.87
2023-02-19T20:44:28.537Z,10.33
2023-02-19T20:46:58.154Z,10.67
2023-02-19T20:49:28.838Z,10.23
2023-02-19T20:51:59.407Z,10.40
2023-02-19T20:54:29.871Z,11.10
2023-02-19T20:56:59.778Z,10.50
2023-02-19T20:59:30.974Z,11.07
2023-02-19T21:01:59.113Z,10.97
2023-02-19T21:04:27.066Z,11.97
2023-02-19T21:06:54.754Z,11.90
2023-02-19T21:09:23.625Z,11.50
2023-02-19T21:11:53.153Z,11.63
2023-02-19T21:14:21.053Z,12.87
2023-02-19T21:16:48.745Z,12.37
2023-02-19T21:19:16.822Z,12.87
2023-02-19T21:21:44.611Z,12.53
2023-02-19T21:24:13.803Z,12.40
2023-02-19T21:26:43.102Z,13.90
2023-02-19T21:29:15.550Z,12.83
2023-02-19T21:31:45.946Z,12.63
2023-02-19T21:34:16.317Z,12.87
2023-02-19T21:36:45.517Z,12.90
2023-02-19T21:39:17.216Z,12.40
2023-02-19T21:41:45.490Z,14.53
2023-02-19T21:44:13.053Z,13.33
2023-02-19T21:46:40.922Z,12.97
2023-02-19T21:49:09.268Z,13.67
2023-02-19T21:51:39.392Z,13.63
2023-02-19T21:54:08.255Z,13.07
2023-02-19T21:56:38.371Z,12.60
2023-02-19T21:59:05.930Z,12.37
2023-02-19T22:01:38.840Z,12.63
2023-02-19T22:04:07.546Z,13.43
2023-02-19T22:06:35.511Z,13.63
2023-02-19T22:09:03.802Z,13.27
2023-02-19T22:11:31.496Z,13.03
2023-02-19T22:13:59.151Z,12.10
2023-02-19T22:16:27.056Z,12.47
2023-02-19T22:18:57.149Z,12.83
2023-02-19T22:21:33.548Z,12.63
2023-02-19T22:24:03.025Z,13.30
2023-02-19T22:26:35.536Z,11.93
2023-02-19T22:29:08.445Z,12.97
2023-02-19T22:31:36.324Z,12.70
2023-02-19T22:34:04.493Z,13.40
2023-02-19T22:36:33.842Z,11.43
2023-02-19T22:39:01.784Z,12.40
2023-02-19T22:41:29.891Z,12.27
2023-02-19T22:43:59.159Z,13.87
2023-02-19T22:46:30.157Z,12.30
2023-02-19T22:48:58.586Z,13.87
2023-02-19T22:51:26.798Z,12.63
2023-02-19T22:53:55.999Z,13.33
2023-02-19T22:56:25.911Z,12.80
2023-02-19T22:58:55.302Z,13.53
2023-02-19T23:01:25.924Z,12.83
2023-02-19T23:03:56.453Z,12.80
2023-02-19T23:06:24.158Z,13.37
2023-02-19T23:08:52.475Z,13.13
2023-02-19T23:11:22.500Z,11.60
2023-02-19T23:13:50.280Z,12.90
2023-02-19T23:16:18.165Z,12.03
2023-02-19T23:18:45.892Z,12.00
2023-02-19T23:21:13.842Z,12.83
2023-02-19T23:23:45.262Z,12.57
2023-02-19T23:26:14.245Z,13.30
2023-02-19T23:28:43.105Z,13.47
2023-02-19T23:31:11.347Z,13.23
2023-02-19T23:33:46.711Z,14.70
2023-02-19T23:36:15.616Z,13.20
2023-02-19T23:38:47.052Z,13.33
2023-02-19T23:41:16.590Z,13.67
2023-02-19T23:43:44.363Z,13.93
2023-02-19T23:46:18.004Z,13.37
2023-02-19T23:48:46.486Z,13.93
2023-02-19T23:51:14.266Z,13.57
2023-02-19T23:53:42.038Z,14.93
2023-02-19T23:56:12.202Z,14.60
2023-02-19T23:58:40.064Z,14.47
